createdAt,value
2017-04-30T00:00:21.528Z,26.61
2017-04-30T00:01:30.269Z,26.22
2017-04-30T00:02:39.812Z,26.42
2017-04-30T00:03:49.504Z,26.32
2017-04-30T00:04:58.582Z,26.42
2017-04-30T00:06:07.652Z,26.32
2017-04-30T00:07:16.415Z,26.32
2017-04-30T00:08:25.373Z,26.22
2017-04-30T00:09:34.986Z,26.61
2017-04-30T00:10:44.026Z,26.32
2017-04-30T00:11:52.795Z,26.7
2017-04-30T00:13:02.190Z,26.12
2017-04-30T00:14:11.565Z,26.7
2017-04-30T00:15:20.953Z,26.51
2017-04-30T00:16:30.000Z,26.12
2017-04-30T00:17:39.032Z,26.03
2017-04-30T00:18:48.716Z,26.42
2017-04-30T00:19:57.762Z,26.42
2017-04-30T00:21:06.781Z,26.12
2017-04-30T00:22:15.853Z,26.22
2017-04-30T00:23:25.209Z,26.12
2017-04-30T00:24:34.521Z,26.7
2017-04-30T00:25:43.547Z,26.7
2017-04-30T00:26:52.313Z,26.61
2017-04-30T00:28:01.987Z,26.7
2017-04-30T00:29:11.374Z,26.9
2017-04-30T00:30:20.746Z,26.7
2017-04-30T00:31:29.826Z,26.7
2017-04-30T00:32:38.907Z,26.7
2017-04-30T00:33:47.667Z,26.7
2017-04-30T00:34:57.649Z,26.8
2017-04-30T00:36:06.711Z,26.7
2017-04-30T00:37:15.775Z,26.7
2017-04-30T00:38:25.137Z,26.12
2017-04-30T00:39:34.509Z,26.22
2017-04-30T00:40:43.890Z,26.12
2017-04-30T00:41:53.267Z,26.31
2017-04-30T00:43:02.347Z,26.7
2017-04-30T00:44:12.034Z,26.31
2017-04-30T00:45:21.115Z,26.9
2017-04-30T00:46:30.159Z,26.42
2017-04-30T00:47:39.184Z,26.8
2017-04-30T00:48:48.851Z,26.7
2017-04-30T00:49:57.591Z,26.31
2017-04-30T00:51:06.963Z,26.79
2017-04-30T00:52:15.728Z,26.8
2017-04-30T00:53:24.767Z,26.42
2017-04-30T00:54:34.410Z,26.9
2017-04-30T00:55:43.181Z,26.7
2017-04-30T00:56:52.559Z,26.89
2017-04-30T00:58:01.625Z,26.21
2017-04-30T00:59:10.730Z,26.89
2017-04-30T01:00:19.780Z,26.98
2017-04-30T01:01:28.518Z,26.31
2017-04-30T01:02:37.661Z,26.79
2017-04-30T01:03:47.169Z,26.79
2017-04-30T01:04:56.782Z,26.21
2017-04-30T01:06:06.117Z,26.79
2017-04-30T01:07:15.200Z,26.79
2017-04-30T01:08:24.574Z,26.79
2017-04-30T01:09:33.649Z,26.79
2017-04-30T01:10:43.035Z,26.79
2017-04-30T01:11:51.971Z,26.79
2017-04-30T01:13:01.654Z,26.4
2017-04-30T01:14:11.314Z,26.31
2017-04-30T01:15:20.353Z,26.31
2017-04-30T01:16:29.424Z,26.89
2017-04-30T01:17:38.494Z,26.31
2017-04-30T01:18:48.067Z,26.79
2017-04-30T01:19:57.420Z,26.79
2017-04-30T01:21:07.062Z,26.59
2017-04-30T01:22:16.128Z,26.79
2017-04-30T01:23:25.801Z,26.31
2017-04-30T01:24:35.485Z,26.59
2017-04-30T01:25:44.539Z,26.21
2017-04-30T01:26:53.609Z,26.59
2017-04-30T01:28:02.371Z,26.79
2017-04-30T01:29:12.069Z,26.59
2017-04-30T01:30:21.144Z,26.59
2017-04-30T01:31:30.215Z,26.59
2017-04-30T01:32:40.190Z,26.5
2017-04-30T01:33:49.573Z,26.79
2017-04-30T01:34:59.250Z,26.5
2017-04-30T01:36:08.627Z,26.59
2017-04-30T01:37:18.307Z,26.79
2017-04-30T01:38:27.373Z,26.79
2017-04-30T01:39:37.054Z,26.4
2017-04-30T01:40:46.126Z,26.59
2017-04-30T01:41:55.491Z,26.5
2017-04-30T01:43:04.858Z,26.69
2017-04-30T01:44:13.639Z,26.59
2017-04-30T01:45:23.012Z,26.59
2017-04-30T01:46:31.767Z,26.79
2017-04-30T01:47:40.839Z,26.69
2017-04-30T01:48:51.228Z,26.69
2017-04-30T01:50:01.213Z,26.5
2017-04-30T01:51:09.980Z,26.98
2017-04-30T01:52:19.080Z,26.79
2017-04-30T01:53:28.171Z,26.79
2017-04-30T01:54:37.531Z,26.69
2017-04-30T01:55:46.252Z,27.08
2017-04-30T01:56:55.027Z,26.5
2017-04-30T01:58:04.373Z,26.79
2017-04-30T01:59:13.377Z,26.5
2017-04-30T02:00:22.709Z,26.5
2017-04-30T02:01:31.750Z,26.5
2017-04-30T02:02:40.486Z,26.69
2017-04-30T02:03:50.172Z,26.59
2017-04-30T02:04:59.549Z,26.69
2017-04-30T02:06:08.936Z,26.79
2017-04-30T02:07:18.625Z,26.79
2017-04-30T02:08:27.695Z,26.89
2017-04-30T02:09:37.689Z,26.98
2017-04-30T02:10:47.064Z,26.79
2017-04-30T02:11:56.135Z,26.69
2017-04-30T02:13:05.509Z,26.89
2017-04-30T02:14:14.785Z,26.69
2017-04-30T02:15:24.476Z,26.69
2017-04-30T02:16:33.536Z,26.79
2017-04-30T02:17:42.613Z,26.59
2017-04-30T02:18:51.683Z,26.89
2017-04-30T02:20:00.758Z,26.79
2017-04-30T02:21:09.516Z,26.89
2017-04-30T02:22:18.285Z,26.89
2017-04-30T02:23:27.062Z,26.89
2017-04-30T02:24:35.840Z,26.79
2017-04-30T02:25:44.920Z,26.89
2017-04-30T02:26:53.711Z,26.89
2017-04-30T02:28:02.748Z,26.89
2017-04-30T02:29:12.446Z,26.89
2017-04-30T02:30:21.566Z,26.69
2017-04-30T02:31:30.655Z,26.89
2017-04-30T02:32:39.420Z,26.69
2017-04-30T02:33:48.150Z,26.98
2017-04-30T02:34:56.900Z,26.98
2017-04-30T02:36:05.684Z,26.79
2017-04-30T02:37:14.748Z,26.98
2017-04-30T02:38:23.822Z,26.89
2017-04-30T02:39:33.218Z,26.98
2017-04-30T02:40:41.965Z,26.79
2017-04-30T02:41:51.306Z,26.89
2017-04-30T02:43:00.693Z,26.98
2017-04-30T02:44:10.079Z,26.89
2017-04-30T02:45:19.127Z,26.69
2017-04-30T02:46:28.491Z,26.59
2017-04-30T02:47:37.262Z,26.79
2017-04-30T02:48:47.277Z,26.98
2017-04-30T02:49:56.664Z,26.89
2017-04-30T02:51:06.024Z,26.69
2017-04-30T02:52:15.074Z,26.69
2017-04-30T02:53:24.159Z,26.79
2017-04-30T02:54:33.227Z,26.69
2017-04-30T02:55:42.555Z,26.69
2017-04-30T02:56:51.266Z,26.79
2017-04-30T02:58:00.312Z,26.59
2017-04-30T02:59:09.094Z,27.08
2017-04-30T03:00:18.794Z,26.5
2017-04-30T03:01:28.136Z,26.98
2017-04-30T03:02:36.896Z,26.59
2017-04-30T03:03:45.986Z,26.59
2017-04-30T03:04:55.370Z,26.59
2017-04-30T03:06:05.061Z,26.5
2017-04-30T03:07:14.453Z,26.69
2017-04-30T03:08:23.838Z,26.59
2017-04-30T03:09:32.911Z,26.69
2017-04-30T03:10:42.279Z,26.79
2017-04-30T03:11:51.318Z,26.79
2017-04-30T03:13:00.710Z,26.69
2017-04-30T03:14:10.078Z,26.69
2017-04-30T03:15:19.106Z,26.79
2017-04-30T03:16:28.150Z,26.11
2017-04-30T03:17:37.233Z,26.98
2017-04-30T03:18:46.214Z,26.79
2017-04-30T03:19:55.302Z,26.68
2017-04-30T03:21:04.694Z,26.69
2017-04-30T03:22:13.480Z,26.69
2017-04-30T03:23:22.538Z,26.79
2017-04-30T03:24:31.590Z,26.79
2017-04-30T03:25:40.340Z,26.69
2017-04-30T03:26:49.079Z,26.79
2017-04-30T03:27:57.861Z,26.48
2017-04-30T03:29:06.920Z,25.82
2017-04-30T03:30:15.662Z,26.4
2017-04-30T03:31:24.437Z,26.02
2017-04-30T03:32:33.832Z,26.31
2017-04-30T03:33:42.613Z,26.29
2017-04-30T03:34:52.309Z,26.48
2017-04-30T03:36:01.402Z,25.91
2017-04-30T03:37:10.493Z,26.21
2017-04-30T03:38:19.872Z,26.31
2017-04-30T03:39:28.965Z,26.21
2017-04-30T03:40:38.015Z,25.82
2017-04-30T03:41:46.752Z,25.73
2017-04-30T03:42:56.147Z,25.81
2017-04-30T03:44:05.542Z,25.92
2017-04-30T03:45:14.977Z,26.11
2017-04-30T03:46:23.761Z,25.44
2017-04-30T03:47:32.538Z,25.81
2017-04-30T03:48:42.540Z,25.43
2017-04-30T03:49:52.257Z,26.11
2017-04-30T03:51:01.955Z,25.52
2017-04-30T03:52:10.730Z,25.82
2017-04-30T03:53:19.478Z,26.29
2017-04-30T03:54:28.849Z,26.31
2017-04-30T03:55:37.935Z,26.2
2017-04-30T03:56:47.024Z,26.29
2017-04-30T03:57:55.809Z,26.1
2017-04-30T03:59:05.191Z,25.82
2017-04-30T04:00:14.884Z,25.15
2017-04-30T04:01:23.941Z,26.29
2017-04-30T04:02:32.674Z,25.52
2017-04-30T04:03:42.033Z,26.1
2017-04-30T04:04:51.368Z,25.52
2017-04-30T04:06:00.455Z,25.62
2017-04-30T04:07:09.236Z,25.43
2017-04-30T04:08:18.289Z,25.91
2017-04-30T04:09:27.614Z,25.43
2017-04-30T04:10:36.320Z,25.52
2017-04-30T04:11:45.366Z,25.43
2017-04-30T04:12:54.451Z,25.33
2017-04-30T04:14:03.853Z,26.29
2017-04-30T04:15:12.945Z,26
2017-04-30T04:16:21.727Z,25.71
2017-04-30T04:17:30.801Z,26.1
2017-04-30T04:18:40.183Z,26.1
2017-04-30T04:19:49.722Z,26.1
2017-04-30T04:20:59.109Z,26.39
2017-04-30T04:22:08.495Z,26.29
2017-04-30T04:23:17.266Z,25.91
2017-04-30T04:24:26.952Z,26.2
2017-04-30T04:25:36.047Z,25.91
2017-04-30T04:26:45.135Z,26.1
2017-04-30T04:27:53.889Z,26.2
2017-04-30T04:29:02.935Z,25.81
2017-04-30T04:30:12.305Z,26.29
2017-04-30T04:31:21.690Z,26
2017-04-30T04:32:30.795Z,26.2
2017-04-30T04:33:39.569Z,26
2017-04-30T04:34:48.653Z,26.2
2017-04-30T04:35:58.050Z,26.29
2017-04-30T04:37:07.445Z,26.29
2017-04-30T04:38:16.526Z,26.39
2017-04-30T04:39:25.921Z,26.39
2017-04-30T04:40:34.693Z,26.39
2017-04-30T04:41:43.474Z,26.1
2017-04-30T04:42:52.246Z,26
2017-04-30T04:44:01.334Z,26.1
2017-04-30T04:45:11.032Z,25.81
2017-04-30T04:46:20.109Z,25.81
2017-04-30T04:47:28.886Z,25.91
2017-04-30T04:48:37.948Z,25.81
2017-04-30T04:49:47.542Z,25.71
2017-04-30T04:50:56.319Z,25.71
2017-04-30T04:52:05.707Z,25.52
2017-04-30T04:53:14.774Z,25.81
2017-04-30T04:54:24.437Z,25.81
2017-04-30T04:55:33.822Z,25.71
2017-04-30T04:56:42.609Z,25.81
2017-04-30T04:57:51.999Z,25.62
2017-04-30T04:59:01.084Z,25.52
2017-04-30T05:00:09.858Z,26.02
2017-04-30T05:01:19.251Z,26.1
2017-04-30T05:02:28.011Z,25.43
2017-04-30T05:03:37.355Z,26.02
2017-04-30T05:04:46.440Z,25.92
2017-04-30T05:05:55.491Z,25.44
2017-04-30T05:07:04.226Z,25.63
2017-04-30T05:08:13.619Z,26.02
2017-04-30T05:09:22.999Z,25.63
2017-04-30T05:10:32.397Z,26.21
2017-04-30T05:11:41.486Z,25.82
2017-04-30T05:12:51.192Z,26.02
2017-04-30T05:14:01.201Z,26.02
2017-04-30T05:15:10.892Z,25.82
2017-04-30T05:16:19.676Z,25.24
2017-04-30T05:17:28.452Z,25.54
2017-04-30T05:18:37.839Z,25.44
2017-04-30T05:19:46.934Z,25.34
2017-04-30T05:20:56.022Z,25.44
2017-04-30T05:22:04.799Z,25.82
2017-04-30T05:23:13.888Z,25.34
2017-04-30T05:24:22.948Z,25.34
2017-04-30T05:25:31.988Z,25.34
2017-04-30T05:26:40.761Z,25.05
2017-04-30T05:27:50.562Z,25.05
2017-04-30T05:28:59.931Z,25.34
2017-04-30T05:30:08.972Z,24.96
2017-04-30T05:31:17.753Z,25.44
2017-04-30T05:32:26.530Z,25.24
2017-04-30T05:33:35.593Z,25.15
2017-04-30T05:34:44.933Z,24.68
2017-04-30T05:35:53.713Z,24.67
2017-04-30T05:37:03.074Z,24.96
2017-04-30T05:38:12.432Z,24.77
2017-04-30T05:39:21.517Z,24.77
2017-04-30T05:40:30.610Z,24.97
2017-04-30T05:41:39.388Z,24.39
2017-04-30T05:42:48.154Z,24.97
2017-04-30T05:43:57.206Z,24.97
2017-04-30T05:45:06.284Z,24.49
2017-04-30T05:46:15.083Z,24.58
2017-04-30T05:47:24.160Z,24.97
2017-04-30T05:48:33.555Z,24.87
2017-04-30T05:49:42.616Z,24.49
2017-04-30T05:50:51.664Z,24.68
2017-04-30T05:52:00.727Z,24.87
2017-04-30T05:53:09.434Z,24.87
2017-04-30T05:54:18.177Z,24.49
2017-04-30T05:55:27.536Z,24.29
2017-04-30T05:56:36.277Z,24.29
2017-04-30T05:57:45.041Z,24.29
2017-04-30T05:58:54.719Z,24.6
2017-04-30T06:00:04.116Z,24.4
2017-04-30T06:01:12.904Z,24.39
2017-04-30T06:02:22.012Z,24.2
2017-04-30T06:03:30.799Z,24.2
2017-04-30T06:04:40.162Z,24.11
2017-04-30T06:05:48.916Z,24.4
2017-04-30T06:06:57.932Z,23.92
2017-04-30T06:08:06.665Z,24.02
2017-04-30T06:09:15.728Z,24.21
2017-04-30T06:10:25.085Z,24.21
2017-04-30T06:11:34.170Z,24.11
2017-04-30T06:12:43.267Z,23.82
2017-04-30T06:13:52.046Z,23.82
2017-04-30T06:15:01.137Z,23.72
2017-04-30T06:16:09.908Z,23.54
2017-04-30T06:17:19.284Z,23.54
2017-04-30T06:18:28.341Z,23.63
2017-04-30T06:19:37.087Z,23.63
2017-04-30T06:20:45.860Z,23.72
2017-04-30T06:21:55.025Z,23.15
2017-04-30T06:23:04.071Z,23.63
2017-04-30T06:24:12.840Z,23.54
2017-04-30T06:25:22.227Z,23.15
2017-04-30T06:26:31.611Z,23.15
2017-04-30T06:27:40.699Z,23.05
2017-04-30T06:28:50.445Z,23.34
2017-04-30T06:29:59.236Z,23.15
2017-04-30T06:31:08.661Z,23.25
2017-04-30T06:32:17.430Z,23.05
2017-04-30T06:33:26.525Z,23.16
2017-04-30T06:34:35.959Z,23.16
2017-04-30T06:35:45.366Z,23.25
2017-04-30T06:36:54.788Z,22.97
2017-04-30T06:38:04.153Z,23.07
2017-04-30T06:39:14.137Z,22.97
2017-04-30T06:40:23.822Z,22.87
2017-04-30T06:41:32.912Z,22.97
2017-04-30T06:42:41.675Z,23.07
2017-04-30T06:43:51.067Z,22.97
2017-04-30T06:45:00.142Z,22.87
2017-04-30T06:46:08.917Z,22.77
2017-04-30T06:47:18.311Z,22.97
2017-04-30T06:48:27.095Z,22.77
2017-04-30T06:49:35.877Z,22.77
2017-04-30T06:50:44.956Z,22.77
2017-04-30T06:51:54.053Z,22.39
2017-04-30T06:53:03.170Z,22.67
2017-04-30T06:54:12.561Z,22.67
2017-04-30T06:55:21.976Z,22.49
2017-04-30T06:56:31.368Z,22.39
2017-04-30T06:57:40.461Z,22.49
2017-04-30T06:58:49.861Z,22.58
2017-04-30T06:59:59.255Z,22.49
2017-04-30T07:01:08.949Z,22.49
2017-04-30T07:02:18.011Z,22.39
2017-04-30T07:03:26.751Z,21.72
2017-04-30T07:04:36.151Z,22.49
2017-04-30T07:05:45.232Z,22.4
2017-04-30T07:06:54.310Z,22.11
2017-04-30T07:08:03.081Z,22.5
2017-04-30T07:09:12.174Z,22.59
2017-04-30T07:10:21.560Z,22.11
2017-04-30T07:11:30.337Z,22.59
2017-04-30T07:12:39.123Z,22.3
2017-04-30T07:13:48.688Z,22.02
2017-04-30T07:14:57.775Z,22.5
2017-04-30T07:16:06.558Z,22.3
2017-04-30T07:17:15.348Z,21.92
2017-04-30T07:18:24.132Z,22.11
2017-04-30T07:19:33.224Z,22.11
2017-04-30T07:20:42.609Z,21.82
2017-04-30T07:21:51.674Z,21.53
2017-04-30T07:23:00.462Z,21.92
2017-04-30T07:24:10.145Z,22.02
2017-04-30T07:25:19.194Z,21.72
2017-04-30T07:26:27.971Z,21.62
2017-04-30T07:27:37.059Z,21.82
2017-04-30T07:28:46.755Z,21.82
2017-04-30T07:29:56.143Z,22.02
2017-04-30T07:31:05.235Z,21.72
2017-04-30T07:32:13.991Z,22.02
2017-04-30T07:33:23.371Z,21.53
2017-04-30T07:34:33.027Z,21.34
2017-04-30T07:35:42.418Z,21.82
2017-04-30T07:36:51.500Z,21.72
2017-04-30T07:38:00.585Z,21.62
2017-04-30T07:39:09.953Z,21.44
2017-04-30T07:40:19.308Z,21.53
2017-04-30T07:41:28.088Z,21.44
2017-04-30T07:42:37.190Z,21.54
2017-04-30T07:43:45.971Z,21.83
2017-04-30T07:44:55.060Z,21.25
2017-04-30T07:46:03.823Z,21.35
2017-04-30T07:47:12.834Z,21.44
2017-04-30T07:48:22.152Z,21.25
2017-04-30T07:49:31.812Z,21.15
2017-04-30T07:50:40.604Z,21.44
2017-04-30T07:51:49.991Z,20.86
2017-04-30T07:52:59.051Z,20.86
2017-04-30T07:54:08.093Z,21.35
2017-04-30T07:55:17.787Z,20.77
2017-04-30T07:56:26.571Z,20.86
2017-04-30T07:57:35.355Z,20.77
2017-04-30T07:58:44.414Z,20.86
2017-04-30T07:59:54.044Z,20.77
2017-04-30T08:01:03.085Z,20.86
2017-04-30T08:02:12.475Z,20.87
2017-04-30T08:03:21.881Z,20.96
2017-04-30T08:04:30.974Z,21.06
2017-04-30T08:05:40.053Z,20.77
2017-04-30T08:06:49.497Z,21.07
2017-04-30T08:07:58.597Z,20.96
2017-04-30T08:09:07.967Z,20.67
2017-04-30T08:10:17.010Z,20.78
2017-04-30T08:11:26.096Z,20.87
2017-04-30T08:12:35.155Z,20.96
2017-04-30T08:13:45.175Z,20.68
2017-04-30T08:14:54.444Z,20.96
2017-04-30T08:16:03.229Z,20.78
2017-04-30T08:17:11.998Z,20.96
2017-04-30T08:18:21.354Z,20.78
2017-04-30T08:19:31.061Z,20.87
2017-04-30T08:20:39.843Z,20.87
2017-04-30T08:21:48.931Z,20.29
2017-04-30T08:22:57.990Z,20.29
2017-04-30T08:24:07.039Z,20.97
2017-04-30T08:25:15.815Z,20.87
2017-04-30T08:26:24.596Z,21.07
2017-04-30T08:27:33.985Z,20.49
2017-04-30T08:28:43.664Z,20.59
2017-04-30T08:29:52.712Z,20.29
2017-04-30T08:31:01.802Z,19.04
2017-04-30T08:32:10.582Z,18.94
2017-04-30T08:33:19.662Z,19.04
2017-04-30T08:34:29.039Z,18.84
2017-04-30T08:35:38.096Z,18.74
2017-04-30T08:36:47.178Z,18.06
2017-04-30T08:37:56.877Z,18.06
2017-04-30T08:39:06.272Z,17.87
2017-04-30T08:40:15.675Z,17.67
2017-04-30T08:41:24.760Z,18.15
2017-04-30T08:42:34.157Z,17.57
2017-04-30T08:43:42.939Z,17.28
2017-04-30T08:44:52.224Z,16.99
2017-04-30T08:46:01.557Z,16.99
2017-04-30T08:47:10.279Z,16.79
2017-04-30T08:48:19.094Z,16.69
2017-04-30T08:49:28.795Z,16.6
2017-04-30T08:50:38.490Z,16.6
2017-04-30T08:51:47.575Z,16.69
2017-04-30T08:52:56.958Z,16.6
2017-04-30T08:54:06.018Z,16.79
2017-04-30T08:55:15.119Z,16.6
2017-04-30T08:56:24.515Z,16.6
2017-04-30T08:57:33.602Z,16.6
2017-04-30T08:58:42.691Z,16.31
2017-04-30T08:59:52.087Z,16.11
2017-04-30T09:01:01.181Z,16.11
2017-04-30T09:02:10.872Z,16.31
2017-04-30T09:03:19.623Z,15.92
2017-04-30T09:04:28.380Z,15.92
2017-04-30T09:05:37.425Z,15.73
2017-04-30T09:06:46.816Z,15.73
2017-04-30T09:07:55.909Z,16.21
2017-04-30T09:09:05.311Z,16.21
2017-04-30T09:10:15.011Z,16.02
2017-04-30T09:11:23.769Z,15.44
2017-04-30T09:12:32.512Z,15.73
2017-04-30T09:13:41.890Z,16.02
2017-04-30T09:14:51.552Z,15.63
2017-04-30T09:16:00.612Z,15.92
2017-04-30T09:17:09.678Z,16.21
2017-04-30T09:18:18.471Z,15.63
2017-04-30T09:19:28.171Z,15.83
2017-04-30T09:20:37.558Z,16.02
2017-04-30T09:21:46.646Z,15.83
2017-04-30T09:22:55.733Z,16.03
2017-04-30T09:24:04.510Z,15.92
2017-04-30T09:25:13.614Z,15.73
2017-04-30T09:26:22.706Z,15.35
2017-04-30T09:27:31.496Z,15.34
2017-04-30T09:28:40.279Z,15.05
2017-04-30T09:29:49.053Z,15.34
2017-04-30T09:30:58.442Z,15.44
2017-04-30T09:32:07.812Z,14.95
2017-04-30T09:33:16.857Z,14.09
2017-04-30T09:34:26.292Z,15.25
2017-04-30T09:35:35.662Z,14.58
2017-04-30T09:36:44.723Z,14.47
2017-04-30T09:37:53.817Z,14.18
2017-04-30T09:39:03.214Z,14.09
2017-04-30T09:40:12.606Z,14.47
2017-04-30T09:41:21.381Z,14.57
2017-04-30T09:42:31.082Z,14.86
2017-04-30T09:43:40.757Z,14.38
2017-04-30T09:44:49.805Z,14.09
2017-04-30T09:45:59.487Z,14.57
2017-04-30T09:47:08.883Z,14.18
2017-04-30T09:48:17.664Z,13.7
2017-04-30T09:49:26.745Z,13.9
2017-04-30T09:50:35.537Z,14.18
2017-04-30T09:51:44.576Z,14.09
2017-04-30T09:52:53.459Z,14.09
2017-04-30T09:54:02.846Z,14.67
2017-04-30T09:55:12.253Z,14.19
2017-04-30T09:56:21.354Z,13.99
2017-04-30T09:57:30.759Z,14
2017-04-30T09:58:40.456Z,14.28
2017-04-30T09:59:49.822Z,14.29
2017-04-30T10:00:59.501Z,13.81
2017-04-30T10:02:08.541Z,14.39
2017-04-30T10:03:17.325Z,14
2017-04-30T10:04:27.036Z,13.51
2017-04-30T10:05:36.087Z,14.09
2017-04-30T10:06:45.165Z,14
2017-04-30T10:07:54.259Z,13.9
2017-04-30T10:09:03.041Z,14.09
2017-04-30T10:10:12.741Z,14.29
2017-04-30T10:11:21.538Z,14.09
2017-04-30T10:12:30.615Z,13.9
2017-04-30T10:13:39.711Z,13.62
2017-04-30T10:14:48.803Z,13.61
2017-04-30T10:15:57.898Z,13.32
2017-04-30T10:17:06.995Z,13.61
2017-04-30T10:18:16.059Z,13.42
2017-04-30T10:19:25.756Z,13.61
2017-04-30T10:20:35.457Z,13.61
2017-04-30T10:21:44.242Z,13.42
2017-04-30T10:22:53.362Z,13.32
2017-04-30T10:24:02.125Z,13.42
2017-04-30T10:25:11.526Z,13.71
2017-04-30T10:26:20.325Z,13.42
2017-04-30T10:27:29.086Z,13.43
2017-04-30T10:28:38.125Z,13.43
2017-04-30T10:29:46.921Z,13.33
2017-04-30T10:30:56.284Z,13.23
2017-04-30T10:32:05.074Z,13.62
2017-04-30T10:33:13.860Z,13.62
2017-04-30T10:34:22.958Z,13.04
2017-04-30T10:35:32.973Z,12.94
2017-04-30T10:36:42.066Z,13.43
2017-04-30T10:37:51.387Z,13.13
2017-04-30T10:39:01.089Z,13.04
2017-04-30T10:40:10.155Z,12.75
2017-04-30T10:41:18.896Z,13.04
2017-04-30T10:42:27.992Z,12.94
2017-04-30T10:43:37.692Z,12.94
2017-04-30T10:44:46.776Z,12.94
2017-04-30T10:45:55.866Z,12.94
2017-04-30T10:47:04.949Z,12.85
2017-04-30T10:48:14.033Z,12.46
2017-04-30T10:49:23.726Z,12.46
2017-04-30T10:50:32.806Z,12.65
2017-04-30T10:51:41.582Z,12.65
2017-04-30T10:52:50.362Z,12.27
2017-04-30T10:54:00.062Z,12.55
2017-04-30T10:55:08.809Z,12.94
2017-04-30T10:56:17.553Z,13.13
2017-04-30T10:57:26.326Z,12.94
2017-04-30T10:58:35.717Z,12.94
2017-04-30T10:59:44.823Z,12.75
2017-04-30T11:00:53.906Z,13.04
2017-04-30T11:02:02.672Z,13.23
2017-04-30T11:03:11.463Z,13.04
2017-04-30T11:04:20.865Z,12.94
2017-04-30T11:05:31.188Z,12.75
2017-04-30T11:06:40.241Z,12.76
2017-04-30T11:07:49.615Z,12.95
2017-04-30T11:08:59.583Z,13.14
2017-04-30T11:10:08.367Z,12.95
2017-04-30T11:11:17.443Z,12.46
2017-04-30T11:12:26.193Z,12.66
2017-04-30T11:13:35.549Z,12.85
2017-04-30T11:14:44.639Z,12.95
2017-04-30T11:15:54.037Z,13.04
2017-04-30T11:17:03.739Z,12.76
2017-04-30T11:18:12.502Z,12.85
2017-04-30T11:19:21.858Z,12.85
2017-04-30T11:20:31.284Z,12.56
2017-04-30T11:21:40.070Z,13.04
2017-04-30T11:22:49.161Z,12.95
2017-04-30T11:23:58.688Z,12.85
2017-04-30T11:25:07.769Z,12.66
2017-04-30T11:26:16.857Z,13.05
2017-04-30T11:27:25.938Z,12.85
2017-04-30T11:28:35.315Z,12.96
2017-04-30T11:29:44.066Z,12.96
2017-04-30T11:30:53.154Z,12.96
2017-04-30T11:32:02.221Z,12.96
2017-04-30T11:33:10.997Z,12.96
2017-04-30T11:34:20.388Z,12.85
2017-04-30T11:35:29.477Z,12.96
2017-04-30T11:36:38.575Z,12.96
2017-04-30T11:37:47.666Z,12.86
2017-04-30T11:38:57.359Z,13.05
2017-04-30T11:40:06.429Z,13.05
2017-04-30T11:41:15.176Z,12.86
2017-04-30T11:42:24.574Z,12.86
2017-04-30T11:43:33.659Z,13.15
2017-04-30T11:44:42.753Z,13.15
2017-04-30T11:45:51.838Z,13.15
2017-04-30T11:47:00.926Z,13.05
2017-04-30T11:48:10.330Z,12.86
2017-04-30T11:49:19.736Z,12.86
2017-04-30T11:50:29.167Z,13.24
2017-04-30T11:51:37.948Z,12.76
2017-04-30T11:52:47.366Z,13.05
2017-04-30T11:53:56.765Z,12.86
2017-04-30T11:55:06.138Z,12.96
2017-04-30T11:56:15.493Z,12.96
2017-04-30T11:57:24.303Z,13.34
2017-04-30T11:58:33.400Z,13.44
2017-04-30T11:59:42.526Z,13.24
2017-04-30T12:00:51.333Z,13.34
2017-04-30T12:02:00.109Z,13.34
2017-04-30T12:03:09.176Z,13.45
2017-04-30T12:04:17.931Z,13.44
2017-04-30T12:05:26.693Z,13.35
2017-04-30T12:06:35.712Z,13.05
2017-04-30T12:07:44.760Z,13.63
2017-04-30T12:08:54.557Z,13.73
2017-04-30T12:10:04.531Z,13.35
2017-04-30T12:11:13.244Z,13.35
2017-04-30T12:12:21.986Z,14.12
2017-04-30T12:13:31.085Z,14.12
2017-04-30T12:14:40.180Z,13.45
2017-04-30T12:15:49.267Z,13.45
2017-04-30T12:16:58.653Z,13.64
2017-04-30T12:18:07.732Z,13.83
2017-04-30T12:19:17.124Z,13.64
2017-04-30T12:20:26.221Z,13.54
2017-04-30T12:21:35.009Z,13.73
2017-04-30T12:22:43.792Z,13.54
2017-04-30T12:23:52.888Z,13.25
2017-04-30T12:25:02.873Z,13.73
2017-04-30T12:26:11.583Z,13.45
2017-04-30T12:27:20.650Z,13.34
2017-04-30T12:28:29.407Z,13.25
2017-04-30T12:29:38.533Z,13.06
2017-04-30T12:30:47.298Z,13.34
2017-04-30T12:31:56.364Z,13.54
2017-04-30T12:33:05.109Z,13.34
2017-04-30T12:34:14.173Z,13.44
2017-04-30T12:35:23.202Z,13.54
2017-04-30T12:36:32.549Z,13.15
2017-04-30T12:37:42.221Z,13.24
2017-04-30T12:38:51.884Z,13.63
2017-04-30T12:40:01.278Z,14.12
2017-04-30T12:41:10.358Z,13.63
2017-04-30T12:42:19.144Z,13.92
2017-04-30T12:43:28.242Z,14.01
2017-04-30T12:44:37.652Z,14.01
2017-04-30T12:45:47.019Z,13.82
2017-04-30T12:46:55.769Z,13.92
2017-04-30T12:48:04.815Z,14.11
2017-04-30T12:49:13.597Z,13.92
2017-04-30T12:50:22.973Z,14.2
2017-04-30T12:51:32.075Z,14.3
2017-04-30T12:52:40.889Z,14.2
2017-04-30T12:53:50.585Z,14.3
2017-04-30T12:55:00.033Z,14.2
2017-04-30T12:56:09.112Z,14.3
2017-04-30T12:57:17.889Z,13.92
2017-04-30T12:58:26.674Z,14.11
2017-04-30T12:59:35.741Z,14.01
2017-04-30T13:00:44.790Z,14.11
2017-04-30T13:01:53.896Z,14.3
2017-04-30T13:03:02.677Z,14.3
2017-04-30T13:04:11.467Z,14.2
2017-04-30T13:05:21.166Z,14.5
2017-04-30T13:06:29.942Z,14.11
2017-04-30T13:07:38.728Z,13.72
2017-04-30T13:08:47.781Z,14.4
2017-04-30T13:09:56.857Z,14.01
2017-04-30T13:11:06.258Z,14.29
2017-04-30T13:12:15.066Z,14.2
2017-04-30T13:13:23.825Z,14.29
2017-04-30T13:14:32.883Z,14.39
2017-04-30T13:15:41.962Z,14.1
2017-04-30T13:16:51.043Z,14.29
2017-04-30T13:18:00.146Z,14.1
2017-04-30T13:19:08.923Z,14.49
2017-04-30T13:20:17.700Z,14.2
2017-04-30T13:21:26.791Z,14.39
2017-04-30T13:22:35.553Z,14.29
2017-04-30T13:23:44.601Z,14.59
2017-04-30T13:24:54.597Z,14.97
2017-04-30T13:26:03.997Z,14.68
2017-04-30T13:27:13.706Z,14.49
2017-04-30T13:28:23.113Z,14.59
2017-04-30T13:29:32.207Z,14.49
2017-04-30T13:30:41.612Z,14.68
2017-04-30T13:31:50.392Z,14.87
2017-04-30T13:32:59.121Z,14.68
2017-04-30T13:34:08.201Z,14.78
2017-04-30T13:35:17.599Z,14.09
2017-04-30T13:36:26.408Z,14.78
2017-04-30T13:37:35.187Z,14.97
2017-04-30T13:38:44.581Z,14.78
2017-04-30T13:39:53.977Z,14.49
2017-04-30T13:41:03.684Z,14.87
2017-04-30T13:42:12.475Z,14.87
2017-04-30T13:43:21.539Z,14.58
2017-04-30T13:44:30.880Z,14.19
2017-04-30T13:45:39.956Z,14.01
2017-04-30T13:46:49.006Z,14
2017-04-30T13:47:57.892Z,14.09
2017-04-30T13:49:06.677Z,13.9
2017-04-30T13:50:15.466Z,13.51
2017-04-30T13:51:24.243Z,13.51
2017-04-30T13:52:33.636Z,14
2017-04-30T13:53:42.696Z,14.09
2017-04-30T13:54:52.024Z,14.09
2017-04-30T13:56:01.685Z,13.71
2017-04-30T13:57:10.781Z,14.09
2017-04-30T13:58:19.797Z,13.99
2017-04-30T13:59:28.887Z,14.09
2017-04-30T14:00:38.576Z,14.09
2017-04-30T14:01:47.323Z,14.09
2017-04-30T14:02:56.107Z,14.38
2017-04-30T14:04:05.207Z,14.39
2017-04-30T14:05:14.594Z,14.09
2017-04-30T14:06:23.375Z,14.38
2017-04-30T14:07:32.155Z,14.87
2017-04-30T14:08:41.550Z,14.39
2017-04-30T14:09:50.641Z,14.67
2017-04-30T14:11:00.051Z,14.67
2017-04-30T14:12:08.874Z,14.48
2017-04-30T14:13:18.572Z,14.67
2017-04-30T14:14:27.658Z,14.58
2017-04-30T14:15:36.716Z,14.67
2017-04-30T14:16:45.453Z,14.76
2017-04-30T14:17:54.540Z,14.67
2017-04-30T14:19:03.937Z,14.48
2017-04-30T14:20:13.642Z,15.16
2017-04-30T14:21:22.716Z,14.58
2017-04-30T14:22:31.495Z,14.77
2017-04-30T14:23:40.887Z,14.77
2017-04-30T14:24:49.681Z,14.67
2017-04-30T14:25:59.382Z,14.97
2017-04-30T14:27:08.167Z,14.09
2017-04-30T14:28:17.259Z,14.09
2017-04-30T14:29:26.959Z,14.09
2017-04-30T14:30:36.074Z,14.86
2017-04-30T14:31:44.833Z,14.38
2017-04-30T14:32:53.884Z,14.47
2017-04-30T14:34:02.966Z,14.86
2017-04-30T14:35:12.658Z,14.86
2017-04-30T14:36:21.738Z,14.57
2017-04-30T14:37:31.099Z,14.76
2017-04-30T14:38:40.754Z,14.67
2017-04-30T14:39:49.831Z,14.57
2017-04-30T14:40:58.623Z,14.95
2017-04-30T14:42:07.409Z,14.86
2017-04-30T14:43:16.480Z,14.86
2017-04-30T14:44:25.529Z,14.86
2017-04-30T14:45:34.278Z,14.95
2017-04-30T14:46:43.020Z,14.67
2017-04-30T14:47:52.104Z,14.86
2017-04-30T14:49:00.860Z,14.67
2017-04-30T14:50:10.820Z,14.76
2017-04-30T14:51:19.916Z,14.95
2017-04-30T14:52:28.689Z,14.86
2017-04-30T14:53:37.773Z,14.95
2017-04-30T14:54:47.417Z,14.47